Greater Binghamton,Edwin A Link field Binghamton US
ICAO: KBGM
IATA: BGM
Category: Medium
Scheduled Services: Yes

Elevation: 1636 ft
TransAlt. 18000 ft.

Airport Communications:
APP/DEP:118.6
ATIS:128.15
CLNC DEL:125.05
CTAF:119.3
GND:121.9
BUFFALO RDO:112.2
TWR:119.3
UNICOM:122.95

KBGM Zoom In..

If you have problems with the map follow the link
https://www.worldairports.se/pages/airport.php?
ICAO=KBGM

Runways:

(A) RW 10 length 5001 ft width 150 ft
---- / hdg 98

(B) RW 16 length 7304 ft width 150 ft
ILS 110.30 / hdg 160

(C) RW 28 length 5001 ft width 150 ft
---- / hdg 278

(D) RW 34 length 7304 ft width 150 ft
ILS 110.30 / hdg 340

Location; KBGM
Day. 12 / Time. 11.53 Zulu
* Altimeter: 30.56
* Temperature: -11° c. -12.2°f.
* Wind from: 260° Speed 04 kn.
Dewpoint: -16° c.
Visibility: 10 Statute Miles.
Clouds: Clear (automated report).

KBGM 121153Z 26004KT 10SM CLR M11/M16 A3056 RMK AO2 SLP380 T11061156 11094 21111 53020


Wind From 260°
Speed 04 kn.

 
 
jpsmedia worldairports.se 2019   terms of use